sensor_id;sensor_type;location;lat;lon;timestamp;P1;durP1;ratioP1;P2;durP2;ratioP2
53309;SDS011;39197;53.200;5.792;2023-07-24T00:01:11;15.20;;;7.50;;
53309;SDS011;39197;53.200;5.792;2023-07-24T00:03:37;13.45;;;5.88;;
53309;SDS011;39197;53.200;5.792;2023-07-24T00:06:03;18.02;;;7.50;;
53309;SDS011;39197;53.200;5.792;2023-07-24T00:08:28;14.70;;;6.55;;
53309;SDS011;39197;53.200;5.792;2023-07-24T00:10:54;14.63;;;6.88;;
53309;SDS011;39197;53.200;5.792;2023-07-24T00:13:19;12.48;;;6.85;;
53309;SDS011;39197;53.200;5.792;2023-07-24T00:15:45;12.55;;;6.60;;
53309;SDS011;39197;53.200;5.792;2023-07-24T00:18:11;12.48;;;6.60;;
53309;SDS011;39197;53.200;5.792;2023-07-24T00:20:36;14.48;;;5.75;;
53309;SDS011;39197;53.200;5.792;2023-07-24T00:23:02;14.70;;;6.07;;
53309;SDS011;39197;53.200;5.792;2023-07-24T00:25:27;14.73;;;5.68;;
53309;SDS011;39197;53.200;5.792;2023-07-24T00:27:53;16.83;;;6.43;;
53309;SDS011;39197;53.200;5.792;2023-07-24T00:30:19;13.73;;;5.72;;
53309;SDS011;39197;53.200;5.792;2023-07-24T00:32:44;10.90;;;5.30;;
53309;SDS011;39197;53.200;5.792;2023-07-24T00:35:10;11.50;;;6.28;;
53309;SDS011;39197;53.200;5.792;2023-07-24T00:37:36;14.02;;;5.70;;
53309;SDS011;39197;53.200;5.792;2023-07-24T00:40:02;16.60;;;5.45;;
53309;SDS011;39197;53.200;5.792;2023-07-24T00:42:28;18.38;;;6.32;;
53309;SDS011;39197;53.200;5.792;2023-07-24T00:44:54;15.02;;;6.35;;
53309;SDS011;39197;53.200;5.792;2023-07-24T00:47:20;10.65;;;5.45;;
53309;SDS011;39197;53.200;5.792;2023-07-24T00:49:46;14.50;;;5.78;;
53309;SDS011;39197;53.200;5.792;2023-07-24T00:52:13;14.63;;;5.30;;
53309;SDS011;39197;53.200;5.792;2023-07-24T00:54:40;14.23;;;6.00;;
53309;SDS011;39197;53.200;5.792;2023-07-24T00:57:06;15.30;;;5.20;;
53309;SDS011;39197;53.200;5.792;2023-07-24T00:59:32;13.23;;;5.68;;
53309;SDS011;39197;53.200;5.792;2023-07-24T01:01:58;13.52;;;5.35;;
53309;SDS011;39197;53.200;5.792;2023-07-24T01:04:23;11.95;;;5.40;;
53309;SDS011;39197;53.200;5.792;2023-07-24T01:06:49;15.20;;;6.82;;
53309;SDS011;39197;53.200;5.792;2023-07-24T01:09:15;10.20;;;5.63;;
53309;SDS011;39197;53.200;5.792;2023-07-24T01:11:43;15.85;;;7.28;;
53309;SDS011;39197;53.200;5.792;2023-07-24T01:16:43;16.92;;;7.65;;
53309;SDS011;39197;53.200;5.792;2023-07-24T01:19:20;12.45;;;6.93;;
53309;SDS011;39197;53.200;5.792;2023-07-24T01:24:47;16.52;;;7.85;;
53309;SDS011;39197;53.200;5.792;2023-07-24T01:27:34;19.45;;;8.40;;
53309;SDS011;39197;53.200;5.792;2023-07-24T01:29:59;19.05;;;8.98;;
53309;SDS011;39197;53.200;5.792;2023-07-24T01:32:25;21.30;;;10.25;;
53309;SDS011;39197;53.200;5.792;2023-07-24T01:34:52;22.23;;;9.27;;
53309;SDS011;39197;53.200;5.792;2023-07-24T01:37:19;18.92;;;9.32;;
53309;SDS011;39197;53.200;5.792;2023-07-24T01:39:46;21.33;;;8.32;;
53309;SDS011;39197;53.200;5.792;2023-07-24T01:42:12;17.48;;;9.40;;
53309;SDS011;39197;53.200;5.792;2023-07-24T01:44:39;19.98;;;9.77;;
53309;SDS011;39197;53.200;5.792;2023-07-24T01:47:04;19.42;;;9.50;;
53309;SDS011;39197;53.200;5.792;2023-07-24T01:49:30;17.40;;;9.30;;
53309;SDS011;39197;53.200;5.792;2023-07-24T01:51:56;15.07;;;8.77;;
53309;SDS011;39197;53.200;5.792;2023-07-24T01:54:22;22.17;;;9.35;;
53309;SDS011;39197;53.200;5.792;2023-07-24T01:56:48;22.58;;;9.73;;
53309;SDS011;39197;53.200;5.792;2023-07-24T01:59:14;17.40;;;9.65;;
53309;SDS011;39197;53.200;5.792;2023-07-24T02:01:39;20.88;;;10.18;;
53309;SDS011;39197;53.200;5.792;2023-07-24T02:04:06;19.83;;;9.75;;
53309;SDS011;39197;53.200;5.792;2023-07-24T02:06:31;20.08;;;9.95;;
53309;SDS011;39197;53.200;5.792;2023-07-24T02:08:57;17.33;;;9.07;;
53309;SDS011;39197;53.200;5.792;2023-07-24T02:11:22;18.80;;;9.45;;
53309;SDS011;39197;53.200;5.792;2023-07-24T02:13:48;16.10;;;8.55;;
53309;SDS011;39197;53.200;5.792;2023-07-24T02:16:14;21.10;;;10.50;;
53309;SDS011;39197;53.200;5.792;2023-07-24T02:18:41;17.83;;;9.20;;
53309;SDS011;39197;53.200;5.792;2023-07-24T02:21:07;16.88;;;10.00;;
53309;SDS011;39197;53.200;5.792;2023-07-24T02:23:33;16.40;;;8.70;;
53309;SDS011;39197;53.200;5.792;2023-07-24T02:25:59;14.82;;;8.77;;
53309;SDS011;39197;53.200;5.792;2023-07-24T02:28:25;18.40;;;9.35;;
53309;SDS011;39197;53.200;5.792;2023-07-24T02:30:51;21.50;;;8.95;;
53309;SDS011;39197;53.200;5.792;2023-07-24T02:33:20;19.80;;;9.82;;
53309;SDS011;39197;53.200;5.792;2023-07-24T02:35:46;16.33;;;8.07;;
53309;SDS011;39197;53.200;5.792;2023-07-24T02:38:12;17.70;;;8.02;;
53309;SDS011;39197;53.200;5.792;2023-07-24T02:40:40;16.85;;;7.95;;
53309;SDS011;39197;53.200;5.792;2023-07-24T02:43:06;15.35;;;8.10;;
53309;SDS011;39197;53.200;5.792;2023-07-24T02:45:35;22.15;;;8.38;;
53309;SDS011;39197;53.200;5.792;2023-07-24T02:48:02;17.15;;;7.68;;
53309;SDS011;39197;53.200;5.792;2023-07-24T02:50:28;17.30;;;8.63;;
53309;SDS011;39197;53.200;5.792;2023-07-24T02:52:54;22.33;;;8.68;;
53309;SDS011;39197;53.200;5.792;2023-07-24T02:55:19;19.70;;;9.32;;
53309;SDS011;39197;53.200;5.792;2023-07-24T02:57:45;16.60;;;7.38;;
53309;SDS011;39197;53.200;5.792;2023-07-24T03:00:11;21.27;;;9.15;;
53309;SDS011;39197;53.200;5.792;2023-07-24T03:02:38;25.10;;;10.93;;
53309;SDS011;39197;53.200;5.792;2023-07-24T03:05:04;18.95;;;9.75;;
53309;SDS011;39197;53.200;5.792;2023-07-24T03:07:30;22.17;;;9.25;;
53309;SDS011;39197;53.200;5.792;2023-07-24T03:09:56;19.30;;;7.70;;
53309;SDS011;39197;53.200;5.792;2023-07-24T03:12:22;22.27;;;9.20;;
53309;SDS011;39197;53.200;5.792;2023-07-24T03:14:47;18.70;;;8.43;;
53309;SDS011;39197;53.200;5.792;2023-07-24T03:17:13;20.05;;;8.32;;
53309;SDS011;39197;53.200;5.792;2023-07-24T03:19:40;21.77;;;7.57;;
53309;SDS011;39197;53.200;5.792;2023-07-24T03:22:06;21.38;;;8.10;;
53309;SDS011;39197;53.200;5.792;2023-07-24T03:24:31;18.10;;;7.82;;
53309;SDS011;39197;53.200;5.792;2023-07-24T03:26:57;19.27;;;7.55;;
53309;SDS011;39197;53.200;5.792;2023-07-24T03:29:22;21.38;;;7.47;;
53309;SDS011;39197;53.200;5.792;2023-07-24T03:31:48;18.45;;;7.25;;
53309;SDS011;39197;53.200;5.792;2023-07-24T03:34:14;19.33;;;7.07;;
53309;SDS011;39197;53.200;5.792;2023-07-24T03:36:39;22.20;;;7.10;;
53309;SDS011;39197;53.200;5.792;2023-07-24T03:39:09;18.75;;;7.35;;
53309;SDS011;39197;53.200;5.792;2023-07-24T03:41:36;11.55;;;6.50;;
53309;SDS011;39197;53.200;5.792;2023-07-24T03:44:02;17.10;;;6.30;;
53309;SDS011;39197;53.200;5.792;2023-07-24T03:46:27;14.57;;;5.18;;
53309;SDS011;39197;53.200;5.792;2023-07-24T03:48:53;16.73;;;6.82;;
53309;SDS011;39197;53.200;5.792;2023-07-24T03:51:19;15.05;;;6.07;;
53309;SDS011;39197;53.200;5.792;2023-07-24T03:53:44;14.65;;;6.32;;
53309;SDS011;39197;53.200;5.792;2023-07-24T03:56:10;12.27;;;5.97;;
53309;SDS011;39197;53.200;5.792;2023-07-24T03:58:36;14.82;;;6.38;;
53309;SDS011;39197;53.200;5.792;2023-07-24T04:01:03;15.30;;;6.45;;
53309;SDS011;39197;53.200;5.792;2023-07-24T04:03:29;15.80;;;6.38;;
53309;SDS011;39197;53.200;5.792;2023-07-24T04:05:55;13.82;;;6.18;;
53309;SDS011;39197;53.200;5.792;2023-07-24T04:08:20;25.85;;;7.20;;
53309;SDS011;39197;53.200;5.792;2023-07-24T04:10:46;16.17;;;5.90;;
53309;SDS011;39197;53.200;5.792;2023-07-24T04:13:12;15.02;;;6.40;;
53309;SDS011;39197;53.200;5.792;2023-07-24T04:15:37;11.98;;;5.63;;
53309;SDS011;39197;53.200;5.792;2023-07-24T04:18:04;12.07;;;4.50;;
53309;SDS011;39197;53.200;5.792;2023-07-24T04:20:30;15.88;;;6.10;;
53309;SDS011;39197;53.200;5.792;2023-07-24T04:22:56;18.55;;;6.28;;
53309;SDS011;39197;53.200;5.792;2023-07-24T04:25:21;15.48;;;5.65;;
53309;SDS011;39197;53.200;5.792;2023-07-24T04:27:47;16.60;;;6.53;;
53309;SDS011;39197;53.200;5.792;2023-07-24T04:30:13;20.33;;;6.15;;
53309;SDS011;39197;53.200;5.792;2023-07-24T04:32:39;16.13;;;6.25;;
53309;SDS011;39197;53.200;5.792;2023-07-24T04:35:04;17.90;;;6.28;;
53309;SDS011;39197;53.200;5.792;2023-07-24T04:37:30;14.63;;;5.90;;
53309;SDS011;39197;53.200;5.792;2023-07-24T04:39:56;13.90;;;5.55;;
53309;SDS011;39197;53.200;5.792;2023-07-24T04:42:22;14.77;;;5.10;;
53309;SDS011;39197;53.200;5.792;2023-07-24T04:44:47;16.55;;;6.95;;
53309;SDS011;39197;53.200;5.792;2023-07-24T04:47:15;14.85;;;7.13;;
53309;SDS011;39197;53.200;5.792;2023-07-24T04:49:40;13.68;;;7.00;;
53309;SDS011;39197;53.200;5.792;2023-07-24T04:52:06;16.23;;;6.57;;
53309;SDS011;39197;53.200;5.792;2023-07-24T04:54:32;13.38;;;6.07;;
53309;SDS011;39197;53.200;5.792;2023-07-24T04:56:57;13.77;;;6.72;;
53309;SDS011;39197;53.200;5.792;2023-07-24T04:59:23;19.10;;;7.05;;
53309;SDS011;39197;53.200;5.792;2023-07-24T05:01:49;23.70;;;8.65;;
53309;SDS011;39197;53.200;5.792;2023-07-24T05:04:15;16.58;;;5.53;;
53309;SDS011;39197;53.200;5.792;2023-07-24T05:06:40;13.57;;;5.40;;
53309;SDS011;39197;53.200;5.792;2023-07-24T05:09:06;15.43;;;6.55;;
53309;SDS011;39197;53.200;5.792;2023-07-24T05:11:32;21.25;;;7.05;;
53309;SDS011;39197;53.200;5.792;2023-07-24T05:13:57;23.00;;;7.03;;
53309;SDS011;39197;53.200;5.792;2023-07-24T05:16:23;16.60;;;6.30;;
53309;SDS011;39197;53.200;5.792;2023-07-24T05:18:48;12.27;;;6.43;;
53309;SDS011;39197;53.200;5.792;2023-07-24T05:21:14;18.17;;;7.38;;
53309;SDS011;39197;53.200;5.792;2023-07-24T05:23:40;17.15;;;7.32;;
53309;SDS011;39197;53.200;5.792;2023-07-24T05:26:05;23.55;;;7.10;;
53309;SDS011;39197;53.200;5.792;2023-07-24T05:28:31;20.90;;;7.13;;
53309;SDS011;39197;53.200;5.792;2023-07-24T05:31:01;15.63;;;6.78;;
53309;SDS011;39197;53.200;5.792;2023-07-24T05:33:27;16.33;;;7.07;;
53309;SDS011;39197;53.200;5.792;2023-07-24T05:36:03;17.10;;;7.07;;
53309;SDS011;39197;53.200;5.792;2023-07-24T05:38:29;19.75;;;5.95;;
53309;SDS011;39197;53.200;5.792;2023-07-24T05:41:00;18.08;;;6.15;;
53309;SDS011;39197;53.200;5.792;2023-07-24T05:43:27;14.68;;;6.03;;
53309;SDS011;39197;53.200;5.792;2023-07-24T05:45:54;17.42;;;7.25;;
53309;SDS011;39197;53.200;5.792;2023-07-24T05:48:21;14.18;;;6.25;;
53309;SDS011;39197;53.200;5.792;2023-07-24T05:50:47;19.27;;;6.50;;
53309;SDS011;39197;53.200;5.792;2023-07-24T05:53:13;17.85;;;5.80;;
53309;SDS011;39197;53.200;5.792;2023-07-24T05:55:39;21.90;;;7.25;;
53309;SDS011;39197;53.200;5.792;2023-07-24T05:58:05;18.80;;;6.35;;
53309;SDS011;39197;53.200;5.792;2023-07-24T06:00:31;16.75;;;6.78;;
53309;SDS011;39197;53.200;5.792;2023-07-24T06:02:56;15.75;;;5.80;;
53309;SDS011;39197;53.200;5.792;2023-07-24T06:05:22;18.13;;;5.93;;
53309;SDS011;39197;53.200;5.792;2023-07-24T06:07:47;23.25;;;6.90;;
53309;SDS011;39197;53.200;5.792;2023-07-24T06:10:13;15.20;;;7.32;;
53309;SDS011;39197;53.200;5.792;2023-07-24T06:12:39;17.30;;;6.88;;
53309;SDS011;39197;53.200;5.792;2023-07-24T06:15:06;14.63;;;5.40;;
53309;SDS011;39197;53.200;5.792;2023-07-24T06:17:32;20.27;;;5.75;;
53309;SDS011;39197;53.200;5.792;2023-07-24T06:19:57;20.30;;;7.68;;
53309;SDS011;39197;53.200;5.792;2023-07-24T06:22:23;16.88;;;6.68;;
53309;SDS011;39197;53.200;5.792;2023-07-24T06:24:49;17.83;;;6.00;;
53309;SDS011;39197;53.200;5.792;2023-07-24T06:27:15;15.38;;;6.00;;
53309;SDS011;39197;53.200;5.792;2023-07-24T06:29:41;27.00;;;8.52;;
53309;SDS011;39197;53.200;5.792;2023-07-24T06:32:07;20.05;;;6.75;;
53309;SDS011;39197;53.200;5.792;2023-07-24T06:34:33;19.38;;;6.38;;
53309;SDS011;39197;53.200;5.792;2023-07-24T06:36:59;18.02;;;5.78;;
53309;SDS011;39197;53.200;5.792;2023-07-24T06:39:25;22.33;;;7.57;;
53309;SDS011;39197;53.200;5.792;2023-07-24T06:41:51;20.10;;;7.28;;
53309;SDS011;39197;53.200;5.792;2023-07-24T06:44:17;21.38;;;7.10;;
53309;SDS011;39197;53.200;5.792;2023-07-24T06:46:43;19.33;;;6.32;;
53309;SDS011;39197;53.200;5.792;2023-07-24T06:49:08;22.65;;;6.88;;
53309;SDS011;39197;53.200;5.792;2023-07-24T06:51:35;15.98;;;6.47;;
53309;SDS011;39197;53.200;5.792;2023-07-24T06:54:00;15.55;;;5.85;;
53309;SDS011;39197;53.200;5.792;2023-07-24T06:56:27;18.58;;;6.00;;
53309;SDS011;39197;53.200;5.792;2023-07-24T06:58:53;19.52;;;6.95;;
53309;SDS011;39197;53.200;5.792;2023-07-24T07:01:19;22.38;;;6.65;;
53309;SDS011;39197;53.200;5.792;2023-07-24T07:03:44;17.13;;;6.07;;
53309;SDS011;39197;53.200;5.792;2023-07-24T07:06:10;16.00;;;6.38;;
53309;SDS011;39197;53.200;5.792;2023-07-24T07:08:36;18.05;;;6.07;;
53309;SDS011;39197;53.200;5.792;2023-07-24T07:11:02;23.45;;;7.63;;
53309;SDS011;39197;53.200;5.792;2023-07-24T07:13:28;20.83;;;6.60;;
53309;SDS011;39197;53.200;5.792;2023-07-24T07:15:53;20.90;;;7.22;;
53309;SDS011;39197;53.200;5.792;2023-07-24T07:18:19;19.92;;;6.53;;
53309;SDS011;39197;53.200;5.792;2023-07-24T07:20:48;14.73;;;5.47;;
53309;SDS011;39197;53.200;5.792;2023-07-24T07:23:15;16.95;;;6.35;;
53309;SDS011;39197;53.200;5.792;2023-07-24T07:25:41;14.50;;;5.82;;
53309;SDS011;39197;53.200;5.792;2023-07-24T07:28:16;19.00;;;6.00;;
53309;SDS011;39197;53.200;5.792;2023-07-24T07:30:43;21.50;;;7.38;;
53309;SDS011;39197;53.200;5.792;2023-07-24T07:33:09;13.57;;;4.50;;
53309;SDS011;39197;53.200;5.792;2023-07-24T07:35:35;18.90;;;6.63;;
53309;SDS011;39197;53.200;5.792;2023-07-24T07:38:02;21.92;;;6.15;;
53309;SDS011;39197;53.200;5.792;2023-07-24T07:40:28;18.98;;;6.10;;
53309;SDS011;39197;53.200;5.792;2023-07-24T07:42:54;9.40;;;4.43;;
53309;SDS011;39197;53.200;5.792;2023-07-24T07:45:20;21.27;;;6.07;;
53309;SDS011;39197;53.200;5.792;2023-07-24T07:47:46;14.07;;;5.20;;
53309;SDS011;39197;53.200;5.792;2023-07-24T07:50:12;12.38;;;5.75;;
53309;SDS011;39197;53.200;5.792;2023-07-24T07:52:38;17.70;;;5.25;;
53309;SDS011;39197;53.200;5.792;2023-07-24T07:55:04;13.90;;;5.88;;
53309;SDS011;39197;53.200;5.792;2023-07-24T07:57:31;17.85;;;6.45;;
53309;SDS011;39197;53.200;5.792;2023-07-24T08:00:00;19.48;;;6.55;;
53309;SDS011;39197;53.200;5.792;2023-07-24T08:02:25;15.35;;;5.68;;
53309;SDS011;39197;53.200;5.792;2023-07-24T08:04:51;18.27;;;5.80;;
53309;SDS011;39197;53.200;5.792;2023-07-24T08:07:16;15.38;;;5.07;;
53309;SDS011;39197;53.200;5.792;2023-07-24T08:09:42;6.88;;;3.10;;
53309;SDS011;39197;53.200;5.792;2023-07-24T08:12:08;15.20;;;5.55;;
53309;SDS011;39197;53.200;5.792;2023-07-24T08:14:33;17.13;;;6.22;;
53309;SDS011;39197;53.200;5.792;2023-07-24T08:16:59;12.02;;;4.10;;
53309;SDS011;39197;53.200;5.792;2023-07-24T08:19:27;8.60;;;3.40;;
53309;SDS011;39197;53.200;5.792;2023-07-24T08:21:54;12.93;;;4.68;;
53309;SDS011;39197;53.200;5.792;2023-07-24T08:24:19;12.43;;;5.82;;
53309;SDS011;39197;53.200;5.792;2023-07-24T08:26:45;16.27;;;4.90;;
53309;SDS011;39197;53.200;5.792;2023-07-24T08:29:11;13.30;;;4.95;;
53309;SDS011;39197;53.200;5.792;2023-07-24T08:31:37;7.43;;;3.50;;
53309;SDS011;39197;53.200;5.792;2023-07-24T08:34:02;12.43;;;5.43;;
53309;SDS011;39197;53.200;5.792;2023-07-24T08:36:28;16.77;;;6.45;;
53309;SDS011;39197;53.200;5.792;2023-07-24T08:38:54;17.17;;;6.78;;
53309;SDS011;39197;53.200;5.792;2023-07-24T08:41:20;15.43;;;6.55;;
53309;SDS011;39197;53.200;5.792;2023-07-24T08:43:45;13.93;;;6.55;;
53309;SDS011;39197;53.200;5.792;2023-07-24T08:46:11;10.38;;;4.05;;
53309;SDS011;39197;53.200;5.792;2023-07-24T08:48:41;6.60;;;3.40;;
53309;SDS011;39197;53.200;5.792;2023-07-24T08:51:07;12.43;;;3.75;;
53309;SDS011;39197;53.200;5.792;2023-07-24T08:53:38;12.65;;;5.55;;
53309;SDS011;39197;53.200;5.792;2023-07-24T08:56:08;12.43;;;5.97;;
53309;SDS011;39197;53.200;5.792;2023-07-24T08:58:35;12.57;;;6.32;;
53309;SDS011;39197;53.200;5.792;2023-07-24T09:01:02;8.57;;;7.57;;
53309;SDS011;39197;53.200;5.792;2023-07-24T09:03:29;14.02;;;8.57;;
53309;SDS011;39197;53.200;5.792;2023-07-24T09:05:56;8.43;;;6.47;;
53309;SDS011;39197;53.200;5.792;2023-07-24T09:08:32;12.45;;;7.95;;
53309;SDS011;39197;53.200;5.792;2023-07-24T09:10:59;8.30;;;6.95;;
53309;SDS011;39197;53.200;5.792;2023-07-24T09:13:25;12.80;;;6.55;;
53309;SDS011;39197;53.200;5.792;2023-07-24T09:15:51;12.80;;;5.82;;
53309;SDS011;39197;53.200;5.792;2023-07-24T09:18:17;6.68;;;5.53;;
53309;SDS011;39197;53.200;5.792;2023-07-24T09:20:43;9.52;;;5.25;;
53309;SDS011;39197;53.200;5.792;2023-07-24T09:23:10;5.55;;;4.78;;
53309;SDS011;39197;53.200;5.792;2023-07-24T09:25:38;8.68;;;5.53;;
53309;SDS011;39197;53.200;5.792;2023-07-24T09:30:36;4.88;;;3.35;;
53309;SDS011;39197;53.200;5.792;2023-07-24T09:33:03;7.35;;;4.82;;
53309;SDS011;39197;53.200;5.792;2023-07-24T09:35:28;8.30;;;5.07;;
53309;SDS011;39197;53.200;5.792;2023-07-24T09:38:01;9.48;;;5.15;;
53309;SDS011;39197;53.200;5.792;2023-07-24T09:41:04;8.85;;;4.80;;
53309;SDS011;39197;53.200;5.792;2023-07-24T09:43:24;7.63;;;5.10;;
53309;SDS011;39197;53.200;5.792;2023-07-24T09:45:52;6.65;;;4.25;;
53309;SDS011;39197;53.200;5.792;2023-07-24T09:48:19;6.35;;;4.93;;
53309;SDS011;39197;53.200;5.792;2023-07-24T09:50:47;7.30;;;5.38;;
53309;SDS011;39197;53.200;5.792;2023-07-24T09:56:03;5.78;;;4.43;;
53309;SDS011;39197;53.200;5.792;2023-07-24T09:58:34;5.78;;;4.78;;
53309;SDS011;39197;53.200;5.792;2023-07-24T10:01:01;5.13;;;4.15;;
53309;SDS011;39197;53.200;5.792;2023-07-24T10:03:30;7.13;;;5.40;;
53309;SDS011;39197;53.200;5.792;2023-07-24T10:05:57;8.48;;;5.10;;
53309;SDS011;39197;53.200;5.792;2023-07-24T10:08:22;6.35;;;4.50;;
53309;SDS011;39197;53.200;5.792;2023-07-24T10:10:50;6.00;;;3.47;;
53309;SDS011;39197;53.200;5.792;2023-07-24T10:13:18;5.78;;;4.07;;
53309;SDS011;39197;53.200;5.792;2023-07-24T10:15:46;6.63;;;4.38;;
53309;SDS011;39197;53.200;5.792;2023-07-24T10:18:12;5.65;;;3.92;;
53309;SDS011;39197;53.200;5.792;2023-07-24T10:20:41;5.13;;;4.63;;
53309;SDS011;39197;53.200;5.792;2023-07-24T10:23:10;5.05;;;4.10;;
53309;SDS011;39197;53.200;5.792;2023-07-24T10:25:40;6.00;;;4.60;;
53309;SDS011;39197;53.200;5.792;2023-07-24T10:28:10;6.47;;;4.72;;
53309;SDS011;39197;53.200;5.792;2023-07-24T10:30:37;5.63;;;4.00;;
53309;SDS011;39197;53.200;5.792;2023-07-24T10:33:17;5.05;;;4.35;;
53309;SDS011;39197;53.200;5.792;2023-07-24T10:35:49;6.53;;;4.60;;
53309;SDS011;39197;53.200;5.792;2023-07-24T10:38:18;8.23;;;3.95;;
53309;SDS011;39197;53.200;5.792;2023-07-24T10:40:46;6.70;;;5.07;;
53309;SDS011;39197;53.200;5.792;2023-07-24T10:43:18;6.28;;;4.00;;
53309;SDS011;39197;53.200;5.792;2023-07-24T10:48:16;4.20;;;3.40;;
53309;SDS011;39197;53.200;5.792;2023-07-24T10:50:43;5.13;;;3.30;;
53309;SDS011;39197;53.200;5.792;2023-07-24T10:53:10;5.55;;;3.00;;
53309;SDS011;39197;53.200;5.792;2023-07-24T10:55:41;5.35;;;3.08;;
53309;SDS011;39197;53.200;5.792;2023-07-24T10:58:07;3.45;;;2.97;;
53309;SDS011;39197;53.200;5.792;2023-07-24T11:00:33;6.63;;;3.13;;
53309;SDS011;39197;53.200;5.792;2023-07-24T11:02:59;5.45;;;3.83;;
53309;SDS011;39197;53.200;5.792;2023-07-24T11:05:25;3.63;;;3.03;;
53309;SDS011;39197;53.200;5.792;2023-07-24T11:07:51;5.18;;;3.45;;
53309;SDS011;39197;53.200;5.792;2023-07-24T11:10:17;5.25;;;4.00;;
53309;SDS011;39197;53.200;5.792;2023-07-24T11:12:43;6.93;;;4.00;;
53309;SDS011;39197;53.200;5.792;2023-07-24T11:15:09;5.93;;;3.38;;
53309;SDS011;39197;53.200;5.792;2023-07-24T11:17:37;6.47;;;3.72;;
53309;SDS011;39197;53.200;5.792;2023-07-24T11:20:15;4.20;;;2.88;;
53309;SDS011;39197;53.200;5.792;2023-07-24T11:22:42;4.05;;;2.50;;
53309;SDS011;39197;53.200;5.792;2023-07-24T11:25:12;2.75;;;2.45;;
53309;SDS011;39197;53.200;5.792;2023-07-24T11:27:41;4.80;;;2.25;;
53309;SDS011;39197;53.200;5.792;2023-07-24T11:30:12;3.05;;;2.75;;
53309;SDS011;39197;53.200;5.792;2023-07-24T11:32:40;4.32;;;2.47;;
53309;SDS011;39197;53.200;5.792;2023-07-24T11:35:08;2.25;;;1.50;;
53309;SDS011;39197;53.200;5.792;2023-07-24T11:37:34;2.03;;;1.30;;
53309;SDS011;39197;53.200;5.792;2023-07-24T11:40:02;2.20;;;1.10;;
53309;SDS011;39197;53.200;5.792;2023-07-24T11:42:42;2.45;;;1.00;;
53309;SDS011;39197;53.200;5.792;2023-07-24T11:45:09;2.30;;;0.90;;
53309;SDS011;39197;53.200;5.792;2023-07-24T11:47:45;1.35;;;0.60;;
53309;SDS011;39197;53.200;5.792;2023-07-24T11:50:12;1.77;;;0.60;;
53309;SDS011;39197;53.200;5.792;2023-07-24T11:55:08;1.35;;;0.60;;
53309;SDS011;39197;53.200;5.792;2023-07-24T11:57:33;1.65;;;0.63;;
53309;SDS011;39197;53.200;5.792;2023-07-24T11:59:59;1.23;;;0.30;;
53309;SDS011;39197;53.200;5.792;2023-07-24T12:02:25;2.10;;;0.30;;
53309;SDS011;39197;53.200;5.792;2023-07-24T12:04:56;1.17;;;0.35;;
53309;SDS011;39197;53.200;5.792;2023-07-24T12:07:28;1.45;;;0.60;;
53309;SDS011;39197;53.200;5.792;2023-07-24T12:09:58;1.40;;;0.57;;
53309;SDS011;39197;53.200;5.792;2023-07-24T12:12:44;0.90;;;0.40;;
53309;SDS011;39197;53.200;5.792;2023-07-24T12:15:13;1.42;;;0.40;;
53309;SDS011;39197;53.200;5.792;2023-07-24T12:17:40;2.45;;;0.70;;
53309;SDS011;39197;53.200;5.792;2023-07-24T12:20:06;8.40;;;3.63;;
53309;SDS011;39197;53.200;5.792;2023-07-24T12:22:35;9.38;;;4.00;;
53309;SDS011;39197;53.200;5.792;2023-07-24T12:25:02;7.32;;;2.92;;
53309;SDS011;39197;53.200;5.792;2023-07-24T12:27:30;10.02;;;3.15;;
53309;SDS011;39197;53.200;5.792;2023-07-24T12:29:56;6.32;;;1.95;;
53309;SDS011;39197;53.200;5.792;2023-07-24T12:32:22;7.70;;;1.50;;
53309;SDS011;39197;53.200;5.792;2023-07-24T12:34:49;6.80;;;1.90;;
53309;SDS011;39197;53.200;5.792;2023-07-24T12:37:16;7.72;;;1.63;;
53309;SDS011;39197;53.200;5.792;2023-07-24T12:39:43;8.55;;;3.30;;
53309;SDS011;39197;53.200;5.792;2023-07-24T12:42:10;3.75;;;1.38;;
53309;SDS011;39197;53.200;5.792;2023-07-24T12:44:36;8.10;;;3.75;;
53309;SDS011;39197;53.200;5.792;2023-07-24T12:47:01;6.63;;;1.63;;
53309;SDS011;39197;53.200;5.792;2023-07-24T12:49:28;6.70;;;1.55;;
53309;SDS011;39197;53.200;5.792;2023-07-24T12:51:54;5.25;;;1.58;;
53309;SDS011;39197;53.200;5.792;2023-07-24T12:54:19;6.38;;;1.63;;
53309;SDS011;39197;53.200;5.792;2023-07-24T12:56:46;6.93;;;2.78;;
53309;SDS011;39197;53.200;5.792;2023-07-24T12:59:12;4.78;;;1.70;;
53309;SDS011;39197;53.200;5.792;2023-07-24T13:01:38;6.75;;;1.50;;
53309;SDS011;39197;53.200;5.792;2023-07-24T13:04:03;4.97;;;1.05;;
53309;SDS011;39197;53.200;5.792;2023-07-24T13:06:29;6.25;;;1.90;;
53309;SDS011;39197;53.200;5.792;2023-07-24T13:08:55;5.20;;;1.42;;
53309;SDS011;39197;53.200;5.792;2023-07-24T13:11:20;4.53;;;1.10;;
53309;SDS011;39197;53.200;5.792;2023-07-24T13:13:46;10.20;;;2.40;;
53309;SDS011;39197;53.200;5.792;2023-07-24T13:16:12;8.75;;;1.50;;
53309;SDS011;39197;53.200;5.792;2023-07-24T13:18:38;5.75;;;1.33;;
53309;SDS011;39197;53.200;5.792;2023-07-24T13:21:03;7.47;;;1.52;;
53309;SDS011;39197;53.200;5.792;2023-07-24T13:23:31;4.15;;;1.65;;
53309;SDS011;39197;53.200;5.792;2023-07-24T13:25:57;6.82;;;1.63;;
53309;SDS011;39197;53.200;5.792;2023-07-24T13:28:22;6.72;;;1.67;;
53309;SDS011;39197;53.200;5.792;2023-07-24T13:30:48;6.97;;;1.70;;
53309;SDS011;39197;53.200;5.792;2023-07-24T13:33:14;6.90;;;0.82;;
53309;SDS011;39197;53.200;5.792;2023-07-24T13:35:40;3.83;;;1.05;;
53309;SDS011;39197;53.200;5.792;2023-07-24T13:38:05;4.55;;;1.35;;
53309;SDS011;39197;53.200;5.792;2023-07-24T13:40:33;4.03;;;0.90;;
53309;SDS011;39197;53.200;5.792;2023-07-24T13:42:59;7.65;;;1.80;;
53309;SDS011;39197;53.200;5.792;2023-07-24T13:45:25;4.57;;;1.05;;
53309;SDS011;39197;53.200;5.792;2023-07-24T13:47:51;5.70;;;1.35;;
53309;SDS011;39197;53.200;5.792;2023-07-24T13:50:16;7.82;;;1.50;;
53309;SDS011;39197;53.200;5.792;2023-07-24T13:52:42;5.70;;;1.42;;
53309;SDS011;39197;53.200;5.792;2023-07-24T13:55:08;4.25;;;0.98;;
53309;SDS011;39197;53.200;5.792;2023-07-24T13:57:33;6.25;;;1.35;;
53309;SDS011;39197;53.200;5.792;2023-07-24T13:59:59;5.68;;;1.10;;
53309;SDS011;39197;53.200;5.792;2023-07-24T14:02:25;5.45;;;1.50;;
53309;SDS011;39197;53.200;5.792;2023-07-24T14:04:50;2.55;;;0.80;;
53309;SDS011;39197;53.200;5.792;2023-07-24T14:07:17;3.72;;;1.00;;
53309;SDS011;39197;53.200;5.792;2023-07-24T14:09:43;5.63;;;1.08;;
53309;SDS011;39197;53.200;5.792;2023-07-24T14:12:09;7.97;;;1.60;;
53309;SDS011;39197;53.200;5.792;2023-07-24T14:14:34;5.70;;;1.20;;
53309;SDS011;39197;53.200;5.792;2023-07-24T14:17:00;5.93;;;1.60;;
53309;SDS011;39197;53.200;5.792;2023-07-24T14:19:25;5.63;;;1.70;;
53309;SDS011;39197;53.200;5.792;2023-07-24T14:21:51;5.20;;;1.02;;
53309;SDS011;39197;53.200;5.792;2023-07-24T14:24:17;5.80;;;1.50;;
53309;SDS011;39197;53.200;5.792;2023-07-24T14:26:42;6.28;;;2.05;;
53309;SDS011;39197;53.200;5.792;2023-07-24T14:29:10;7.45;;;1.25;;
53309;SDS011;39197;53.200;5.792;2023-07-24T14:31:36;5.88;;;1.30;;
53309;SDS011;39197;53.200;5.792;2023-07-24T14:34:02;5.78;;;1.15;;
53309;SDS011;39197;53.200;5.792;2023-07-24T14:36:29;8.68;;;1.98;;
53309;SDS011;39197;53.200;5.792;2023-07-24T14:39:02;5.43;;;1.02;;
53309;SDS011;39197;53.200;5.792;2023-07-24T14:41:28;9.98;;;1.98;;
53309;SDS011;39197;53.200;5.792;2023-07-24T14:43:54;4.75;;;1.00;;
53309;SDS011;39197;53.200;5.792;2023-07-24T14:46:20;7.60;;;1.17;;
53309;SDS011;39197;53.200;5.792;2023-07-24T14:48:46;9.75;;;1.65;;
53309;SDS011;39197;53.200;5.792;2023-07-24T14:51:12;4.65;;;1.52;;